createdAt,value
2022-08-08T00:00:52.966Z,15.83
2022-08-08T00:03:20.051Z,15.87
2022-08-08T00:06:03.738Z,15.89
2022-08-08T00:08:55.003Z,15.89
2022-08-08T00:11:46.444Z,15.90
2022-08-08T00:14:54.891Z,15.87
2022-08-08T00:18:02.360Z,15.83
2022-08-08T00:20:53.716Z,15.83
2022-08-08T00:23:53.960Z,15.86
2022-08-08T00:26:42.017Z,15.85
2022-08-08T00:29:45.927Z,15.90
2022-08-08T00:32:35.055Z,15.89
2022-08-08T00:35:22.083Z,15.87
2022-08-08T00:38:16.833Z,15.90
2022-08-08T00:41:55.565Z,15.91
2022-08-08T00:44:50.936Z,15.82
2022-08-08T00:48:05.597Z,15.73
2022-08-08T00:50:55.774Z,15.80
2022-08-08T00:54:15.461Z,15.83
2022-08-08T00:57:19.739Z,15.87
2022-08-08T01:00:32.181Z,15.82
2022-08-08T01:03:57.545Z,15.86
2022-08-08T01:06:39.473Z,15.89
2022-08-08T01:09:42.824Z,15.90
2022-08-08T01:12:35.216Z,15.91
2022-08-08T01:15:37.298Z,15.91
2022-08-08T01:18:52.809Z,15.90
2022-08-08T01:22:12.607Z,15.85
2022-08-08T01:25:25.935Z,15.89
2022-08-08T01:28:29.524Z,15.90
2022-08-08T01:32:05.530Z,15.89
2022-08-08T01:34:34.597Z,15.91
2022-08-08T01:37:56.426Z,15.87
2022-08-08T01:40:32.506Z,15.83
2022-08-08T01:43:20.542Z,15.83
2022-08-08T01:45:58.833Z,15.74
2022-08-08T01:48:46.209Z,15.70
2022-08-08T01:52:44.561Z,15.74
2022-08-08T01:55:26.898Z,15.82
2022-08-08T01:58:10.784Z,15.82
2022-08-08T02:01:09.035Z,15.83
2022-08-08T02:04:23.634Z,15.80
2022-08-08T02:07:41.634Z,15.74
2022-08-08T02:10:45.159Z,15.67
2022-08-08T02:13:54.934Z,15.66
2022-08-08T02:16:50.054Z,15.67
2022-08-08T02:20:07.257Z,15.66
2022-08-08T02:22:33.292Z,15.69
2022-08-08T02:25:48.323Z,15.76
2022-08-08T02:28:35.420Z,15.78
2022-08-08T02:31:58.281Z,15.82
2022-08-08T02:35:12.019Z,15.83
2022-08-08T02:38:25.576Z,15.85
2022-08-08T02:42:03.886Z,15.83
2022-08-08T02:45:00.205Z,15.87
2022-08-08T02:47:54.798Z,15.85
2022-08-08T02:51:02.192Z,15.87
2022-08-08T02:53:56.979Z,15.87
2022-08-08T02:56:45.590Z,15.87
2022-08-08T02:59:58.304Z,15.86
2022-08-08T03:03:01.842Z,15.85
2022-08-08T03:05:57.340Z,15.83
2022-08-08T03:08:55.726Z,15.82
2022-08-08T03:12:02.638Z,15.78
2022-08-08T03:15:57.989Z,15.76
2022-08-08T03:18:08.814Z,15.73
2022-08-08T03:20:51.861Z,15.72
2022-08-08T03:23:30.287Z,15.70
2022-08-08T03:26:11.075Z,15.69
2022-08-08T03:28:59.878Z,15.67
2022-08-08T03:32:05.407Z,15.66
2022-08-08T03:34:41.306Z,15.65
2022-08-08T03:37:58.853Z,15.63
2022-08-08T03:40:29.328Z,15.62
2022-08-08T03:43:16.361Z,15.58
2022-08-08T03:46:06.212Z,15.63
2022-08-08T03:49:56.428Z,15.65
2022-08-08T03:51:50.450Z,15.65
2022-08-08T03:54:40.612Z,15.59
2022-08-08T03:58:32.449Z,15.60
2022-08-08T04:00:18.145Z,15.60
2022-08-08T04:03:11.634Z,15.56
2022-08-08T04:05:49.687Z,15.53
2022-08-08T04:08:33.550Z,15.56
2022-08-08T04:11:17.779Z,15.58
2022-08-08T04:14:04.440Z,15.60
2022-08-08T04:16:49.325Z,15.59
2022-08-08T04:19:23.368Z,15.58
2022-08-08T04:21:58.818Z,15.62
2022-08-08T04:24:35.686Z,15.63
2022-08-08T04:27:10.439Z,15.62
2022-08-08T04:29:55.396Z,15.63
2022-08-08T04:32:34.115Z,15.65
2022-08-08T04:35:07.723Z,15.63
2022-08-08T04:37:46.224Z,15.65
2022-08-08T04:40:25.171Z,15.66
2022-08-08T04:43:01.554Z,15.66
2022-08-08T04:45:37.721Z,15.65
2022-08-08T04:48:09.413Z,15.62
2022-08-08T04:50:45.999Z,15.67
2022-08-08T04:54:27.212Z,15.66
2022-08-08T04:56:13.377Z,15.67
2022-08-08T04:58:46.135Z,15.66
2022-08-08T05:01:18.899Z,15.66
2022-08-08T05:04:10.325Z,15.67
2022-08-08T05:06:46.642Z,15.67
2022-08-08T05:09:17.546Z,15.69
2022-08-08T05:11:57.010Z,15.72
2022-08-08T05:14:31.212Z,15.73
2022-08-08T05:17:09.071Z,15.73
2022-08-08T05:20:12.117Z,15.72
2022-08-08T05:22:36.095Z,15.73
2022-08-08T05:25:07.387Z,15.70
2022-08-08T05:27:41.697Z,15.70
2022-08-08T05:30:17.152Z,15.70
2022-08-08T05:33:03.388Z,15.73
2022-08-08T05:35:39.693Z,15.72
2022-08-08T05:38:30.589Z,15.72
2022-08-08T05:41:12.818Z,15.66
2022-08-08T05:44:02.321Z,15.70
2022-08-08T05:46:35.111Z,15.69
2022-08-08T05:49:11.019Z,15.73
2022-08-08T05:51:48.707Z,15.67
2022-08-08T05:54:43.054Z,15.63
2022-08-08T05:57:45.818Z,15.58
2022-08-08T06:00:22.570Z,15.52
2022-08-08T06:03:25.023Z,15.46
2022-08-08T06:06:07.871Z,15.50
2022-08-08T06:08:55.308Z,15.49
2022-08-08T06:11:37.056Z,15.48
2022-08-08T06:14:17.956Z,15.46
2022-08-08T06:16:52.005Z,15.48
2022-08-08T06:19:39.592Z,15.45
2022-08-08T06:25:05.932Z,15.48
2022-08-08T06:27:48.148Z,15.48
2022-08-08T06:30:28.560Z,15.52
2022-08-08T06:33:05.470Z,15.49
2022-08-08T06:36:07.960Z,15.55
2022-08-08T06:38:47.260Z,15.53
2022-08-08T06:41:20.146Z,15.58
2022-08-08T06:43:57.165Z,15.56
2022-08-08T06:46:33.213Z,15.53
2022-08-08T06:49:03.942Z,15.53
2022-08-08T06:51:47.158Z,15.49
2022-08-08T06:54:27.348Z,15.48
2022-08-08T06:56:57.912Z,15.52
2022-08-08T06:59:34.340Z,15.50
2022-08-08T07:02:34.778Z,15.53
2022-08-08T07:05:20.298Z,15.53
2022-08-08T07:08:11.186Z,15.52
2022-08-08T07:10:50.226Z,15.55
2022-08-08T07:13:25.018Z,15.50
2022-08-08T07:16:10.555Z,15.46
2022-08-08T07:19:07.705Z,15.39
2022-08-08T07:22:04.946Z,15.36
2022-08-08T07:24:46.542Z,15.36
2022-08-08T07:27:21.516Z,15.35
2022-08-08T07:30:14.907Z,15.36
2022-08-08T07:32:51.106Z,15.32
2022-08-08T07:35:21.787Z,15.35
2022-08-08T07:38:10.670Z,15.32
2022-08-08T07:41:04.809Z,15.36
2022-08-08T07:43:40.756Z,15.41
2022-08-08T07:46:24.197Z,15.39
2022-08-08T07:49:06.591Z,15.39
2022-08-08T07:51:45.042Z,15.38
2022-08-08T07:54:47.151Z,15.36
2022-08-08T07:57:42.080Z,15.35
2022-08-08T08:00:21.234Z,15.31
2022-08-08T08:03:24.103Z,15.32
2022-08-08T08:06:05.770Z,15.29
2022-08-08T08:08:52.355Z,15.31
2022-08-08T08:11:33.704Z,15.31
2022-08-08T08:14:49.459Z,15.34
2022-08-08T08:17:21.992Z,15.29
2022-08-08T08:20:00.285Z,15.38
2022-08-08T08:22:33.402Z,15.39
2022-08-08T08:25:09.906Z,15.38
2022-08-08T08:27:46.680Z,15.41
2022-08-08T08:30:19.325Z,15.45
2022-08-08T08:32:51.096Z,15.48
2022-08-08T08:35:29.701Z,15.52
2022-08-08T08:38:18.437Z,15.53
2022-08-08T08:40:57.969Z,15.52
2022-08-08T08:43:30.871Z,15.53
2022-08-08T08:46:05.769Z,15.53
2022-08-08T08:48:38.471Z,15.56
2022-08-08T08:51:22.830Z,15.58
2022-08-08T08:53:59.911Z,15.58
2022-08-08T08:56:39.841Z,15.58
2022-08-08T08:59:15.746Z,15.60
2022-08-08T09:01:57.474Z,15.59
2022-08-08T09:04:39.636Z,15.59
2022-08-08T09:07:39.276Z,15.58
2022-08-08T09:10:17.741Z,15.50
2022-08-08T09:12:52.669Z,15.45
2022-08-08T09:15:40.862Z,15.45
2022-08-08T09:18:19.713Z,15.46
2022-08-08T09:22:01.964Z,15.42
2022-08-08T09:23:43.517Z,15.42
2022-08-08T09:26:39.364Z,15.36
2022-08-08T09:29:24.671Z,15.38
2022-08-08T09:32:12.023Z,15.38
2022-08-08T09:34:52.900Z,15.41
2022-08-08T09:37:59.320Z,15.38
2022-08-08T09:40:42.751Z,15.39
2022-08-08T09:44:05.432Z,15.38
2022-08-08T09:46:30.638Z,15.34
2022-08-08T09:49:42.164Z,15.36
2022-08-08T09:52:06.232Z,15.42
2022-08-08T09:54:46.262Z,15.41
2022-08-08T09:57:35.071Z,15.43
2022-08-08T10:00:50.080Z,15.43
2022-08-08T10:03:09.802Z,15.45
2022-08-08T10:05:40.086Z,15.38
2022-08-08T10:08:10.891Z,15.35
2022-08-08T10:10:50.853Z,15.34
2022-08-08T10:13:32.371Z,15.36
2022-08-08T10:16:07.076Z,15.36
2022-08-08T10:18:41.653Z,15.36
2022-08-08T10:21:25.206Z,15.36
2022-08-08T10:24:12.256Z,15.38
2022-08-08T10:27:13.090Z,15.45
2022-08-08T10:30:57.098Z,15.36
2022-08-08T10:33:12.478Z,15.38
2022-08-08T10:36:07.546Z,15.39
2022-08-08T10:38:36.063Z,15.39
2022-08-08T10:41:20.279Z,15.43
2022-08-08T10:43:54.041Z,15.46
2022-08-08T10:46:30.576Z,15.53
2022-08-08T10:49:01.129Z,15.59
2022-08-08T10:51:47.193Z,15.65
2022-08-08T10:54:24.738Z,15.59
2022-08-08T10:57:04.311Z,15.65
2022-08-08T10:59:39.677Z,15.56
2022-08-08T11:02:12.173Z,15.56
2022-08-08T11:04:53.667Z,15.55
2022-08-08T11:08:31.459Z,15.55
2022-08-08T11:10:28.556Z,15.59
2022-08-08T11:16:00.330Z,15.63
2022-08-08T11:18:35.171Z,15.65
2022-08-08T11:21:10.383Z,15.67
2022-08-08T11:24:02.109Z,15.72
2022-08-08T11:26:38.321Z,15.78
2022-08-08T11:29:41.877Z,15.72
2022-08-08T11:32:23.063Z,15.72
2022-08-08T11:35:27.091Z,15.70
2022-08-08T11:38:39.038Z,15.79
2022-08-08T11:40:57.577Z,15.83
2022-08-08T11:43:38.992Z,15.90
2022-08-08T11:46:17.270Z,15.90
2022-08-08T11:48:50.462Z,15.94
2022-08-08T11:51:37.863Z,15.91
2022-08-08T11:54:27.295Z,15.93
2022-08-08T11:57:27.565Z,15.89
2022-08-08T12:00:05.731Z,15.99
2022-08-08T12:02:57.125Z,16.01
2022-08-08T12:05:38.095Z,16.09
2022-08-08T12:08:09.317Z,16.06
2022-08-08T12:10:54.174Z,16.00
2022-08-08T12:13:38.275Z,16.16
2022-08-08T12:16:30.763Z,16.22
2022-08-08T12:19:13.252Z,16.32
2022-08-08T12:21:59.513Z,16.31
2022-08-08T12:24:54.349Z,16.42
2022-08-08T12:27:28.731Z,16.44
2022-08-08T12:30:18.473Z,16.51
2022-08-08T12:32:52.194Z,16.54
2022-08-08T12:35:24.775Z,16.65
2022-08-08T12:38:09.330Z,16.73
2022-08-08T12:40:56.085Z,16.73
2022-08-08T12:43:46.557Z,16.65
2022-08-08T12:46:26.242Z,16.68
2022-08-08T12:49:22.149Z,16.64
2022-08-08T12:51:58.836Z,16.55
2022-08-08T12:54:40.809Z,16.62
2022-08-08T12:57:26.189Z,16.80
2022-08-08T13:00:03.252Z,16.92
2022-08-08T13:02:42.004Z,17.15
2022-08-08T13:06:02.077Z,17.15
2022-08-08T13:08:20.098Z,17.13
2022-08-08T13:11:00.342Z,17.33
2022-08-08T13:13:36.970Z,17.40
2022-08-08T13:16:26.447Z,17.54
2022-08-08T13:19:09.199Z,17.53
2022-08-08T13:21:55.579Z,17.64
2022-08-08T13:24:48.507Z,17.82
2022-08-08T13:27:29.916Z,18.04
2022-08-08T13:30:08.141Z,18.10
2022-08-08T13:32:41.203Z,18.04
2022-08-08T13:35:25.148Z,18.05
2022-08-08T13:38:07.186Z,18.32
2022-08-08T13:40:41.189Z,18.30
2022-08-08T13:43:12.262Z,18.19
2022-08-08T13:45:43.393Z,18.09
2022-08-08T13:48:25.731Z,18.06
2022-08-08T13:51:33.575Z,17.99
2022-08-08T13:54:00.087Z,17.99
2022-08-08T13:56:59.684Z,18.06
2022-08-08T13:59:39.226Z,18.06
2022-08-08T14:02:31.274Z,17.94
2022-08-08T14:05:20.382Z,17.92
2022-08-08T14:07:59.578Z,17.78
2022-08-08T14:10:33.823Z,17.71
2022-08-08T14:13:30.870Z,17.61
2022-08-08T14:16:15.956Z,17.57
2022-08-08T14:18:55.430Z,17.58
2022-08-08T14:21:52.273Z,17.60
2022-08-08T14:24:35.650Z,17.55
2022-08-08T14:27:07.640Z,17.55
2022-08-08T14:29:39.353Z,17.75
2022-08-08T14:32:17.120Z,17.78
2022-08-08T14:34:59.142Z,17.70
2022-08-08T14:37:42.713Z,17.64
2022-08-08T14:40:29.631Z,17.71
2022-08-08T14:43:31.277Z,17.77
2022-08-08T14:46:02.847Z,17.79
2022-08-08T14:48:57.144Z,17.92
2022-08-08T14:51:47.341Z,17.94
2022-08-08T14:54:28.368Z,18.12
2022-08-08T14:57:04.198Z,18.10
2022-08-08T14:59:44.691Z,18.02
2022-08-08T15:02:31.328Z,18.08
2022-08-08T15:05:10.851Z,18.08
2022-08-08T15:07:43.269Z,18.18
2022-08-08T15:10:28.788Z,18.50
2022-08-08T15:13:00.981Z,18.81
2022-08-08T15:16:02.557Z,18.67
2022-08-08T15:18:22.559Z,18.30
2022-08-08T15:21:00.059Z,18.08
2022-08-08T15:23:33.239Z,18.12
2022-08-08T15:26:08.561Z,18.10
2022-08-08T15:28:43.506Z,17.99
2022-08-08T15:32:02.546Z,17.95
2022-08-08T15:34:06.330Z,18.04
2022-08-08T15:36:41.310Z,18.05
2022-08-08T15:39:15.265Z,18.08
2022-08-08T15:41:46.125Z,17.97
2022-08-08T15:44:16.365Z,17.91
2022-08-08T15:46:50.532Z,17.94
2022-08-08T15:49:22.383Z,17.98
2022-08-08T15:51:54.575Z,18.08
2022-08-08T15:54:38.101Z,18.13
2022-08-08T15:57:11.275Z,18.26
2022-08-08T16:00:05.316Z,18.28
2022-08-08T16:02:50.663Z,18.30
2022-08-08T16:05:23.821Z,18.39
2022-08-08T16:07:54.663Z,18.43
2022-08-08T16:13:07.454Z,18.68
2022-08-08T16:13:43.455Z,18.88
2022-08-08T16:16:09.467Z,18.78
2022-08-08T16:18:56.322Z,18.77
2022-08-08T16:21:32.104Z,18.70
2022-08-08T16:24:06.263Z,18.76
2022-08-08T16:26:38.810Z,18.70
2022-08-08T16:29:19.201Z,18.71
2022-08-08T16:32:13.641Z,18.64
2022-08-08T16:34:51.887Z,18.63
2022-08-08T16:37:21.804Z,18.42
2022-08-08T16:40:02.030Z,18.49
2022-08-08T16:42:34.902Z,18.46
2022-08-08T16:45:11.351Z,18.74
2022-08-08T16:48:00.828Z,18.94
2022-08-08T16:50:31.212Z,19.07
2022-08-08T16:55:00.262Z,19.10
2022-08-08T16:55:57.549Z,18.97
2022-08-08T16:58:32.474Z,18.97
2022-08-08T17:01:15.391Z,18.88
2022-08-08T17:03:58.646Z,19.24
2022-08-08T17:06:43.477Z,19.22
2022-08-08T17:09:15.870Z,19.17
2022-08-08T17:11:55.500Z,19.17
2022-08-08T17:14:34.377Z,19.38
2022-08-08T17:17:41.549Z,19.22
2022-08-08T17:19:57.819Z,19.27
2022-08-08T17:22:39.393Z,19.32
2022-08-08T17:25:13.544Z,19.62
2022-08-08T17:27:47.529Z,19.80
2022-08-08T17:30:23.673Z,19.70
2022-08-08T17:34:49.090Z,19.79
2022-08-08T17:35:54.115Z,19.90
2022-08-08T17:38:28.665Z,19.89
2022-08-08T17:41:01.575Z,19.89
2022-08-08T17:44:01.114Z,19.87
2022-08-08T17:46:40.598Z,19.70
2022-08-08T17:49:16.335Z,19.86
2022-08-08T17:51:53.361Z,19.94
2022-08-08T17:54:25.995Z,20.10
2022-08-08T17:57:00.002Z,20.18
2022-08-08T17:59:36.216Z,20.31
2022-08-08T18:02:11.352Z,20.58
2022-08-08T18:04:51.220Z,21.03
2022-08-08T18:08:03.500Z,20.94
2022-08-08T18:10:12.710Z,21.26
2022-08-08T18:12:44.441Z,21.98
2022-08-08T18:15:17.126Z,22.22
2022-08-08T18:18:09.216Z,22.22
2022-08-08T18:20:54.546Z,23.00
2022-08-08T18:23:25.771Z,23.25
2022-08-08T18:26:01.404Z,21.81
2022-08-08T18:28:53.503Z,21.30
2022-08-08T18:31:25.031Z,21.07
2022-08-08T18:34:11.830Z,20.99
2022-08-08T18:36:49.079Z,21.80
2022-08-08T18:39:28.573Z,22.19
2022-08-08T18:42:03.025Z,22.82
2022-08-08T18:44:36.222Z,22.94
2022-08-08T18:47:07.408Z,22.51
2022-08-08T18:49:57.963Z,22.05
2022-08-08T18:52:29.771Z,21.64
2022-08-08T18:55:10.314Z,21.91
2022-08-08T18:57:45.110Z,21.77
2022-08-08T19:00:20.221Z,21.36
2022-08-08T19:03:01.612Z,21.93
2022-08-08T19:05:45.453Z,22.36
2022-08-08T19:08:25.862Z,22.16
2022-08-08T19:11:02.161Z,21.90
2022-08-08T19:13:53.479Z,22.06
2022-08-08T19:16:28.400Z,21.81
2022-08-08T19:19:04.807Z,21.78
2022-08-08T19:21:49.209Z,21.00
2022-08-08T19:24:42.283Z,21.16
2022-08-08T19:27:11.282Z,21.19
2022-08-08T19:29:46.236Z,21.03
2022-08-08T19:32:21.926Z,20.94
2022-08-08T19:34:55.045Z,20.89
2022-08-08T19:37:43.629Z,20.98
2022-08-08T19:40:16.606Z,21.02
2022-08-08T19:42:48.168Z,21.07
2022-08-08T19:45:59.006Z,20.99
2022-08-08T19:48:29.096Z,20.59
2022-08-08T19:51:01.989Z,20.34
2022-08-08T19:53:50.910Z,20.35
2022-08-08T19:56:39.495Z,20.41
2022-08-08T19:59:12.570Z,20.38
2022-08-08T20:02:00.985Z,20.44
2022-08-08T20:04:34.128Z,20.21
2022-08-08T20:08:28.532Z,19.96
2022-08-08T20:09:58.683Z,19.96
2022-08-08T20:12:32.695Z,19.76
2022-08-08T20:15:16.464Z,19.90
2022-08-08T20:17:49.298Z,19.75
2022-08-08T20:20:23.088Z,19.72
2022-08-08T20:22:56.106Z,19.62
2022-08-08T20:25:29.834Z,19.56
2022-08-08T20:28:07.834Z,19.52
2022-08-08T20:30:55.750Z,19.49
2022-08-08T20:33:28.047Z,19.45
2022-08-08T20:36:22.197Z,19.35
2022-08-08T20:38:53.549Z,19.28
2022-08-08T20:41:25.797Z,19.24
2022-08-08T20:44:02.291Z,19.19
2022-08-08T20:46:34.672Z,19.08
2022-08-08T20:49:12.862Z,18.96
2022-08-08T20:51:43.336Z,18.91
2022-08-08T20:54:24.430Z,18.87
2022-08-08T20:57:04.316Z,18.76
2022-08-08T20:59:49.120Z,18.63
2022-08-08T21:02:26.102Z,18.52
2022-08-08T21:05:00.717Z,18.56
2022-08-08T21:08:33.739Z,18.55
2022-08-08T21:10:28.021Z,18.60
2022-08-08T21:12:58.794Z,18.49
2022-08-08T21:16:05.030Z,18.45
2022-08-08T21:18:20.551Z,18.36
2022-08-08T21:20:55.012Z,18.32
2022-08-08T21:24:02.051Z,18.24
2022-08-08T21:26:26.912Z,18.12
2022-08-08T21:29:01.109Z,18.01
2022-08-08T21:31:58.643Z,17.98
2022-08-08T21:34:23.382Z,17.92
2022-08-08T21:37:11.132Z,17.85
2022-08-08T21:39:56.825Z,17.85
2022-08-08T21:42:27.556Z,17.75
2022-08-08T21:44:58.736Z,17.71
2022-08-08T21:48:04.627Z,17.50
2022-08-08T21:50:22.709Z,17.37
2022-08-08T21:54:30.893Z,17.44
2022-08-08T21:56:18.280Z,17.54
2022-08-08T21:58:37.758Z,17.54
2022-08-08T22:01:27.736Z,17.47
2022-08-08T22:04:02.360Z,17.34
2022-08-08T22:06:33.290Z,17.22
2022-08-08T22:09:09.779Z,17.23
2022-08-08T22:12:02.698Z,17.29
2022-08-08T22:14:30.914Z,17.20
2022-08-08T22:17:01.419Z,17.08
2022-08-08T22:20:11.295Z,16.99
2022-08-08T22:22:24.373Z,16.96
2022-08-08T22:24:59.616Z,16.90
2022-08-08T22:28:00.576Z,16.85
2022-08-08T22:30:29.521Z,16.76
2022-08-08T22:33:00.605Z,16.75
2022-08-08T22:36:05.206Z,16.72
2022-08-08T22:38:24.105Z,16.76
2022-08-08T22:40:54.749Z,16.73
2022-08-08T22:43:27.242Z,16.68
2022-08-08T22:46:02.590Z,16.61
2022-08-08T22:48:33.770Z,16.62
2022-08-08T22:51:06.857Z,16.54
2022-08-08T22:54:31.591Z,16.49
2022-08-08T22:56:28.275Z,16.51
2022-08-08T22:58:59.688Z,16.45
2022-08-08T23:02:02.839Z,16.51
2022-08-08T23:04:32.045Z,16.52
2022-08-08T23:07:03.494Z,16.41
2022-08-08T23:09:39.315Z,16.37
2022-08-08T23:12:40.710Z,16.31
2022-08-08T23:16:41.764Z,16.27
2022-08-08T23:18:03.164Z,16.24
2022-08-08T23:20:34.767Z,16.21
2022-08-08T23:23:05.385Z,16.18
2022-08-08T23:25:48.408Z,16.11
2022-08-08T23:28:19.917Z,16.06
2022-08-08T23:30:50.343Z,16.01
2022-08-08T23:34:15.232Z,15.99
2022-08-08T23:36:11.523Z,15.97
2022-08-08T23:38:44.567Z,15.96
2022-08-08T23:41:24.922Z,15.89
2022-08-08T23:43:59.024Z,15.85
2022-08-08T23:49:05.063Z,15.78
2022-08-08T23:49:24.731Z,15.69
2022-08-08T23:52:06.696Z,15.63
2022-08-08T23:54:43.535Z,15.65
2022-08-08T23:57:27.441Z,15.63
